Omaha, NE (68138)

2:24 AM CST on February 12, 2016 (GMT -0600)
Werner Ent. Omaha | | Change Station
CLOSE
Current Station
Personal Weather Station
Location: Omaha, NE
Elevation: 1168 ft
Nearby Weather Stations

Elev 1168 ft 41.16 °N, 96.13 °W | Updated 1 second ago

Overcast
Overcast
25.1 °F
Feels Like 25 °F
N
0.0
Wind Variable Wind from North
Gusts 7.0 mph

Today
High -- | Low -- °F
--% Chance of Precip.
Yesterday
High -- | Low -- °F
Precip. -- in
Pressure 30.24 in
Visibility 10.0 miles
Clouds Overcast 2000 ft
Windchill 25 °F
Dew Point 22 °F
Humidity 86%
Rainfall 0.00 in
Snow Depth Not available.
7:23 AM 5:54 PM
Waxing Crescent, 18% visible
METAR KMLE 120815Z AUTO 00000KT 10SM OVC020 M03/M06 A3024 RMK AO2 T10311063
Pressure 30.24 in
Visibility 10.0 miles
Clouds Overcast 2000 ft
Windchill 25 °F
Dew Point 22 °F
Humidity 86%
Rainfall 0.00 in
Snow Depth Not available.
7:23 AM 5:54 PM
Waxing Crescent, 18% visible
METAR KMLE 120815Z AUTO 00000KT 10SM OVC020 M03/M06 A3024 RMK AO2 T10311063

10-Day Weather Forecast

Almanac

Astronomy

Feb. 12, 2016 Rise Set
Actual Time
Civil Twilight
Nautical Twilight
Astronomical Twilight
Moon
Length of Visible Light
Length of Day
Tomorrow will be .
, % of the Moon is Illuminated

Today's Extremes

State Highs State Lows

Community

WunderPhotos

Upload Photos

1,892,284 photos uploaded!

WunderBlog® & News

Nearby

Air Quality

  Air Quality AQ Index Pollutant
Not available.

Snow Depth

Station Depth Elevation

Earthquake Activity

City Distance Mag. Time & Date
Minimum magnitude displayed is 2.5.

Coastal Water Temperatures

Place Temperature

Stations

Nearby Weather Stations

Station Location Temp. Windchill Dew Point Humidity Wind Precip. Elev Updated Type
                   

Watches & Warnings

There are currently no watches in effect.